sensor_id;sensor_type;location;lat;lon;timestamp;P1;durP1;ratioP1;P2;durP2;ratioP2
64615;SDS011;51027;42.162;24.754;2022-09-17T00:01:34;7.30;;;2.83;;
64615;SDS011;51027;42.162;24.754;2022-09-17T00:04:00;12.13;;;3.30;;
64615;SDS011;51027;42.162;24.754;2022-09-17T00:06:31;10.88;;;2.90;;
64615;SDS011;51027;42.162;24.754;2022-09-17T00:08:59;10.55;;;3.08;;
64615;SDS011;51027;42.162;24.754;2022-09-17T00:11:27;9.73;;;3.13;;
64615;SDS011;51027;42.162;24.754;2022-09-17T00:13:54;12.95;;;3.40;;
64615;SDS011;51027;42.162;24.754;2022-09-17T00:18:54;11.80;;;3.28;;
64615;SDS011;51027;42.162;24.754;2022-09-17T00:21:23;10.52;;;3.55;;
64615;SDS011;51027;42.162;24.754;2022-09-17T00:23:56;12.10;;;3.42;;
64615;SDS011;51027;42.162;24.754;2022-09-17T00:26:23;9.90;;;3.00;;
64615;SDS011;51027;42.162;24.754;2022-09-17T00:28:49;12.90;;;3.60;;
64615;SDS011;51027;42.162;24.754;2022-09-17T00:31:19;13.68;;;3.38;;
64615;SDS011;51027;42.162;24.754;2022-09-17T00:33:45;8.73;;;3.05;;
64615;SDS011;51027;42.162;24.754;2022-09-17T00:36:11;9.23;;;3.03;;
64615;SDS011;51027;42.162;24.754;2022-09-17T00:38:39;12.30;;;3.50;;
64615;SDS011;51027;42.162;24.754;2022-09-17T00:41:08;11.98;;;3.30;;
64615;SDS011;51027;42.162;24.754;2022-09-17T00:46:23;9.73;;;3.30;;
64615;SDS011;51027;42.162;24.754;2022-09-17T00:49:10;8.45;;;2.97;;
64615;SDS011;51027;42.162;24.754;2022-09-17T00:51:43;12.88;;;3.03;;
64615;SDS011;51027;42.162;24.754;2022-09-17T00:54:17;8.45;;;3.20;;
64615;SDS011;51027;42.162;24.754;2022-09-17T00:56:50;11.68;;;3.28;;
64615;SDS011;51027;42.162;24.754;2022-09-17T00:59:17;10.90;;;3.50;;
64615;SDS011;51027;42.162;24.754;2022-09-17T01:01:47;13.00;;;3.75;;
64615;SDS011;51027;42.162;24.754;2022-09-17T01:04:20;10.50;;;3.35;;
64615;SDS011;51027;42.162;24.754;2022-09-17T01:15:22;10.10;;;3.15;;
64615;SDS011;51027;42.162;24.754;2022-09-17T01:21:22;10.25;;;3.22;;
64615;SDS011;51027;42.162;24.754;2022-09-17T01:32:38;12.30;;;3.40;;
64615;SDS011;51027;42.162;24.754;2022-09-17T01:35:13;13.85;;;3.97;;
64615;SDS011;51027;42.162;24.754;2022-09-17T01:38:02;14.10;;;3.70;;
64615;SDS011;51027;42.162;24.754;2022-09-17T01:40:56;11.75;;;3.70;;
64615;SDS011;51027;42.162;24.754;2022-09-17T01:46:29;12.63;;;3.55;;
64615;SDS011;51027;42.162;24.754;2022-09-17T01:49:02;13.15;;;3.85;;
64615;SDS011;51027;42.162;24.754;2022-09-17T01:51:34;12.88;;;3.92;;
64615;SDS011;51027;42.162;24.754;2022-09-17T01:54:08;14.07;;;4.25;;
64615;SDS011;51027;42.162;24.754;2022-09-17T01:56:41;13.98;;;3.90;;
64615;SDS011;51027;42.162;24.754;2022-09-17T01:59:23;11.18;;;3.70;;
64615;SDS011;51027;42.162;24.754;2022-09-17T02:01:55;15.27;;;4.13;;
64615;SDS011;51027;42.162;24.754;2022-09-17T02:04:28;13.00;;;5.00;;
64615;SDS011;51027;42.162;24.754;2022-09-17T02:07:05;13.73;;;4.55;;
64615;SDS011;51027;42.162;24.754;2022-09-17T02:09:46;13.57;;;3.78;;
64615;SDS011;51027;42.162;24.754;2022-09-17T02:12:30;12.50;;;4.10;;
64615;SDS011;51027;42.162;24.754;2022-09-17T02:15:10;12.05;;;3.78;;
64615;SDS011;51027;42.162;24.754;2022-09-17T02:17:47;14.85;;;4.18;;
64615;SDS011;51027;42.162;24.754;2022-09-17T02:20:18;13.73;;;3.85;;
64615;SDS011;51027;42.162;24.754;2022-09-17T02:22:56;11.13;;;3.70;;
64615;SDS011;51027;42.162;24.754;2022-09-17T02:25:30;13.95;;;4.05;;
64615;SDS011;51027;42.162;24.754;2022-09-17T02:30:40;12.52;;;4.05;;
64615;SDS011;51027;42.162;24.754;2022-09-17T02:33:07;15.40;;;4.60;;
64615;SDS011;51027;42.162;24.754;2022-09-17T02:35:43;12.85;;;4.32;;
64615;SDS011;51027;42.162;24.754;2022-09-17T02:38:11;12.57;;;4.50;;
64615;SDS011;51027;42.162;24.754;2022-09-17T02:40:41;13.18;;;4.30;;
64615;SDS011;51027;42.162;24.754;2022-09-17T02:43:16;15.73;;;3.88;;
64615;SDS011;51027;42.162;24.754;2022-09-17T02:52:14;9.35;;;3.88;;
64615;SDS011;51027;42.162;24.754;2022-09-17T02:54:56;13.25;;;4.03;;
64615;SDS011;51027;42.162;24.754;2022-09-17T02:57:43;15.52;;;4.07;;
64615;SDS011;51027;42.162;24.754;2022-09-17T03:00:19;14.73;;;4.30;;
64615;SDS011;51027;42.162;24.754;2022-09-17T03:03:06;12.25;;;4.00;;
64615;SDS011;51027;42.162;24.754;2022-09-17T03:05:41;15.85;;;4.68;;
64615;SDS011;51027;42.162;24.754;2022-09-17T03:08:15;12.43;;;3.78;;
64615;SDS011;51027;42.162;24.754;2022-09-17T03:10:45;15.23;;;4.60;;
64615;SDS011;51027;42.162;24.754;2022-09-17T03:13:16;11.98;;;5.13;;
64615;SDS011;51027;42.162;24.754;2022-09-17T03:15:42;17.23;;;5.43;;
64615;SDS011;51027;42.162;24.754;2022-09-17T03:18:13;15.65;;;5.63;;
64615;SDS011;51027;42.162;24.754;2022-09-17T03:20:39;14.10;;;4.20;;
64615;SDS011;51027;42.162;24.754;2022-09-17T03:23:05;13.70;;;4.45;;
64615;SDS011;51027;42.162;24.754;2022-09-17T03:25:33;15.23;;;4.70;;
64615;SDS011;51027;42.162;24.754;2022-09-17T03:27:58;15.63;;;5.72;;
64615;SDS011;51027;42.162;24.754;2022-09-17T03:30:27;16.08;;;6.25;;
64615;SDS011;51027;42.162;24.754;2022-09-17T03:32:56;16.98;;;6.00;;
64615;SDS011;51027;42.162;24.754;2022-09-17T03:35:22;15.10;;;4.18;;
64615;SDS011;51027;42.162;24.754;2022-09-17T03:37:47;15.25;;;4.30;;
64615;SDS011;51027;42.162;24.754;2022-09-17T03:40:16;13.77;;;4.07;;
64615;SDS011;51027;42.162;24.754;2022-09-17T03:42:44;19.20;;;5.00;;
64615;SDS011;51027;42.162;24.754;2022-09-17T03:45:22;15.63;;;4.63;;
64615;SDS011;51027;42.162;24.754;2022-09-17T03:47:48;16.92;;;5.03;;
64615;SDS011;51027;42.162;24.754;2022-09-17T03:50:14;17.10;;;5.20;;
64615;SDS011;51027;42.162;24.754;2022-09-17T03:52:42;17.37;;;4.67;;
64615;SDS011;51027;42.162;24.754;2022-09-17T03:55:17;17.20;;;5.20;;
64615;SDS011;51027;42.162;24.754;2022-09-17T03:57:43;22.08;;;6.43;;
64615;SDS011;51027;42.162;24.754;2022-09-17T04:00:09;16.08;;;4.78;;
64615;SDS011;51027;42.162;24.754;2022-09-17T04:02:36;18.85;;;6.10;;
64615;SDS011;51027;42.162;24.754;2022-09-17T04:05:02;15.93;;;5.47;;
64615;SDS011;51027;42.162;24.754;2022-09-17T04:07:28;21.90;;;5.50;;
64615;SDS011;51027;42.162;24.754;2022-09-17T04:09:56;15.85;;;4.85;;
64615;SDS011;51027;42.162;24.754;2022-09-17T04:12:25;17.85;;;4.85;;
64615;SDS011;51027;42.162;24.754;2022-09-17T04:14:51;16.88;;;4.47;;
64615;SDS011;51027;42.162;24.754;2022-09-17T04:17:17;18.08;;;5.20;;
64615;SDS011;51027;42.162;24.754;2022-09-17T04:19:43;16.67;;;5.05;;
64615;SDS011;51027;42.162;24.754;2022-09-17T04:22:09;14.10;;;4.72;;
64615;SDS011;51027;42.162;24.754;2022-09-17T04:24:35;15.75;;;5.22;;
64615;SDS011;51027;42.162;24.754;2022-09-17T04:27:04;19.83;;;5.18;;
64615;SDS011;51027;42.162;24.754;2022-09-17T04:29:30;17.25;;;6.85;;
64615;SDS011;51027;42.162;24.754;2022-09-17T04:31:59;16.88;;;5.28;;
64615;SDS011;51027;42.162;24.754;2022-09-17T04:34:34;16.83;;;5.78;;
64615;SDS011;51027;42.162;24.754;2022-09-17T04:39:57;15.38;;;4.45;;
64615;SDS011;51027;42.162;24.754;2022-09-17T04:43:35;14.18;;;4.40;;
64615;SDS011;51027;42.162;24.754;2022-09-17T04:45:52;13.68;;;3.97;;
64615;SDS011;51027;42.162;24.754;2022-09-17T04:48:23;13.55;;;3.80;;
64615;SDS011;51027;42.162;24.754;2022-09-17T04:50:51;14.55;;;4.28;;
64615;SDS011;51027;42.162;24.754;2022-09-17T04:53:19;16.20;;;4.88;;
64615;SDS011;51027;42.162;24.754;2022-09-17T04:55:58;16.08;;;4.60;;
64615;SDS011;51027;42.162;24.754;2022-09-17T04:58:34;17.20;;;4.35;;
64615;SDS011;51027;42.162;24.754;2022-09-17T05:01:00;15.63;;;4.93;;
64615;SDS011;51027;42.162;24.754;2022-09-17T05:03:26;17.38;;;5.40;;
64615;SDS011;51027;42.162;24.754;2022-09-17T05:05:52;19.92;;;6.28;;
64615;SDS011;51027;42.162;24.754;2022-09-17T05:08:20;17.88;;;5.32;;
64615;SDS011;51027;42.162;24.754;2022-09-17T05:10:53;14.93;;;4.97;;
64615;SDS011;51027;42.162;24.754;2022-09-17T05:13:22;16.13;;;5.07;;
64615;SDS011;51027;42.162;24.754;2022-09-17T05:15:50;15.52;;;4.55;;
64615;SDS011;51027;42.162;24.754;2022-09-17T05:18:18;16.63;;;5.25;;
64615;SDS011;51027;42.162;24.754;2022-09-17T05:20:44;13.43;;;4.38;;
64615;SDS011;51027;42.162;24.754;2022-09-17T05:23:12;18.77;;;4.97;;
64615;SDS011;51027;42.162;24.754;2022-09-17T05:25:38;16.23;;;5.38;;
64615;SDS011;51027;42.162;24.754;2022-09-17T05:28:04;14.77;;;4.93;;
64615;SDS011;51027;42.162;24.754;2022-09-17T05:30:30;17.48;;;5.05;;
64615;SDS011;51027;42.162;24.754;2022-09-17T05:33:02;16.48;;;5.65;;
64615;SDS011;51027;42.162;24.754;2022-09-17T05:35:30;17.35;;;5.78;;
64615;SDS011;51027;42.162;24.754;2022-09-17T05:37:59;19.55;;;9.40;;
64615;SDS011;51027;42.162;24.754;2022-09-17T05:40:25;17.15;;;6.43;;
64615;SDS011;51027;42.162;24.754;2022-09-17T05:42:56;16.90;;;5.25;;
64615;SDS011;51027;42.162;24.754;2022-09-17T05:45:28;13.73;;;4.55;;
64615;SDS011;51027;42.162;24.754;2022-09-17T05:47:58;19.25;;;5.78;;
64615;SDS011;51027;42.162;24.754;2022-09-17T05:50:26;16.60;;;4.65;;
64615;SDS011;51027;42.162;24.754;2022-09-17T05:52:56;19.33;;;4.90;;
64615;SDS011;51027;42.162;24.754;2022-09-17T05:55:33;15.90;;;4.75;;
64615;SDS011;51027;42.162;24.754;2022-09-17T05:58:22;19.15;;;5.28;;
64615;SDS011;51027;42.162;24.754;2022-09-17T06:01:00;15.60;;;4.63;;
64615;SDS011;51027;42.162;24.754;2022-09-17T06:03:26;13.52;;;4.03;;
64615;SDS011;51027;42.162;24.754;2022-09-17T06:05:53;17.48;;;5.28;;
64615;SDS011;51027;42.162;24.754;2022-09-17T06:08:29;17.65;;;4.70;;
64615;SDS011;51027;42.162;24.754;2022-09-17T06:11:02;17.13;;;5.20;;
64615;SDS011;51027;42.162;24.754;2022-09-17T06:13:29;18.33;;;4.90;;
64615;SDS011;51027;42.162;24.754;2022-09-17T06:15:57;16.83;;;5.43;;
64615;SDS011;51027;42.162;24.754;2022-09-17T06:18:29;16.20;;;4.57;;
64615;SDS011;51027;42.162;24.754;2022-09-17T06:20:56;18.58;;;5.07;;
64615;SDS011;51027;42.162;24.754;2022-09-17T06:23:29;15.57;;;4.80;;
64615;SDS011;51027;42.162;24.754;2022-09-17T06:26:00;15.65;;;4.80;;
64615;SDS011;51027;42.162;24.754;2022-09-17T06:28:29;18.17;;;6.25;;
64615;SDS011;51027;42.162;24.754;2022-09-17T06:31:03;17.83;;;4.63;;
64615;SDS011;51027;42.162;24.754;2022-09-17T06:33:30;15.38;;;4.10;;
64615;SDS011;51027;42.162;24.754;2022-09-17T06:35:57;13.82;;;3.55;;
64615;SDS011;51027;42.162;24.754;2022-09-17T06:38:28;14.88;;;4.18;;
64615;SDS011;51027;42.162;24.754;2022-09-17T06:40:56;15.75;;;4.40;;
64615;SDS011;51027;42.162;24.754;2022-09-17T06:43:22;11.90;;;4.47;;
64615;SDS011;51027;42.162;24.754;2022-09-17T06:46:02;13.85;;;4.15;;
64615;SDS011;51027;42.162;24.754;2022-09-17T06:48:33;13.90;;;4.40;;
64615;SDS011;51027;42.162;24.754;2022-09-17T06:51:00;16.00;;;5.10;;
64615;SDS011;51027;42.162;24.754;2022-09-17T06:53:28;18.65;;;4.35;;
64615;SDS011;51027;42.162;24.754;2022-09-17T06:55:55;14.15;;;4.10;;
64615;SDS011;51027;42.162;24.754;2022-09-17T06:58:25;13.27;;;4.10;;
64615;SDS011;51027;42.162;24.754;2022-09-17T07:00:56;14.75;;;3.90;;
64615;SDS011;51027;42.162;24.754;2022-09-17T07:03:23;14.32;;;3.92;;
64615;SDS011;51027;42.162;24.754;2022-09-17T07:05:49;14.05;;;3.97;;
64615;SDS011;51027;42.162;24.754;2022-09-17T07:08:14;12.88;;;4.03;;
64615;SDS011;51027;42.162;24.754;2022-09-17T07:10:46;16.45;;;4.07;;
64615;SDS011;51027;42.162;24.754;2022-09-17T07:13:19;12.52;;;3.67;;
64615;SDS011;51027;42.162;24.754;2022-09-17T07:15:57;15.38;;;3.80;;
64615;SDS011;51027;42.162;24.754;2022-09-17T07:18:38;11.75;;;3.75;;
64615;SDS011;51027;42.162;24.754;2022-09-17T07:24:38;14.63;;;4.10;;
64615;SDS011;51027;42.162;24.754;2022-09-17T07:31:14;14.43;;;4.20;;
64615;SDS011;51027;42.162;24.754;2022-09-17T07:33:42;15.07;;;4.15;;
64615;SDS011;51027;42.162;24.754;2022-09-17T07:36:12;16.77;;;5.10;;
64615;SDS011;51027;42.162;24.754;2022-09-17T07:38:39;15.68;;;4.55;;
64615;SDS011;51027;42.162;24.754;2022-09-17T07:41:12;15.23;;;4.45;;
64615;SDS011;51027;42.162;24.754;2022-09-17T07:43:40;15.35;;;4.28;;
64615;SDS011;51027;42.162;24.754;2022-09-17T07:46:09;14.30;;;3.70;;
64615;SDS011;51027;42.162;24.754;2022-09-17T07:48:39;14.52;;;4.45;;
64615;SDS011;51027;42.162;24.754;2022-09-17T07:51:05;14.02;;;3.80;;
64615;SDS011;51027;42.162;24.754;2022-09-17T07:53:31;15.25;;;4.03;;
64615;SDS011;51027;42.162;24.754;2022-09-17T07:56:00;12.18;;;3.83;;
64615;SDS011;51027;42.162;24.754;2022-09-17T07:58:30;16.75;;;5.00;;
64615;SDS011;51027;42.162;24.754;2022-09-17T08:01:01;16.52;;;5.00;;
64615;SDS011;51027;42.162;24.754;2022-09-17T08:03:28;11.88;;;3.83;;
64615;SDS011;51027;42.162;24.754;2022-09-17T08:05:59;15.85;;;3.90;;
64615;SDS011;51027;42.162;24.754;2022-09-17T08:08:28;13.27;;;3.95;;
64615;SDS011;51027;42.162;24.754;2022-09-17T08:14:03;14.45;;;4.50;;
64615;SDS011;51027;42.162;24.754;2022-09-17T08:16:29;13.38;;;3.65;;
64615;SDS011;51027;42.162;24.754;2022-09-17T08:18:55;11.63;;;3.70;;
64615;SDS011;51027;42.162;24.754;2022-09-17T08:21:44;12.60;;;3.88;;
64615;SDS011;51027;42.162;24.754;2022-09-17T08:24:10;15.00;;;4.93;;
64615;SDS011;51027;42.162;24.754;2022-09-17T08:26:36;14.80;;;4.28;;
64615;SDS011;51027;42.162;24.754;2022-09-17T08:29:02;15.20;;;4.35;;
64615;SDS011;51027;42.162;24.754;2022-09-17T08:31:31;15.10;;;4.82;;
64615;SDS011;51027;42.162;24.754;2022-09-17T08:33:57;15.80;;;4.15;;
64615;SDS011;51027;42.162;24.754;2022-09-17T08:36:27;15.95;;;4.40;;
64615;SDS011;51027;42.162;24.754;2022-09-17T08:38:56;16.83;;;6.90;;
64615;SDS011;51027;42.162;24.754;2022-09-17T08:46:33;16.60;;;5.35;;
64615;SDS011;51027;42.162;24.754;2022-09-17T08:56:17;18.08;;;5.32;;
64615;SDS011;51027;42.162;24.754;2022-09-17T09:07:26;13.70;;;4.20;;
64615;SDS011;51027;42.162;24.754;2022-09-17T09:12:27;14.38;;;4.10;;
64615;SDS011;51027;42.162;24.754;2022-09-17T09:15:02;15.23;;;4.07;;
64615;SDS011;51027;42.162;24.754;2022-09-17T09:17:34;18.10;;;4.72;;
64615;SDS011;51027;42.162;24.754;2022-09-17T09:20:11;13.02;;;4.22;;
64615;SDS011;51027;42.162;24.754;2022-09-17T09:22:47;17.63;;;4.38;;
64615;SDS011;51027;42.162;24.754;2022-09-17T09:25:29;15.07;;;4.05;;
64615;SDS011;51027;42.162;24.754;2022-09-17T09:34:23;16.58;;;4.40;;
64615;SDS011;51027;42.162;24.754;2022-09-17T09:36:53;15.27;;;4.28;;
64615;SDS011;51027;42.162;24.754;2022-09-17T09:39:26;16.65;;;5.20;;
64615;SDS011;51027;42.162;24.754;2022-09-17T09:44:51;15.32;;;4.55;;
64615;SDS011;51027;42.162;24.754;2022-09-17T09:50:20;45.30;;;35.05;;
64615;SDS011;51027;42.162;24.754;2022-09-17T09:58:40;37.00;;;26.30;;
64615;SDS011;51027;42.162;24.754;2022-09-17T10:01:24;17.45;;;4.88;;
64615;SDS011;51027;42.162;24.754;2022-09-17T10:03:52;13.93;;;4.63;;
64615;SDS011;51027;42.162;24.754;2022-09-17T10:06:19;19.80;;;5.35;;
64615;SDS011;51027;42.162;24.754;2022-09-17T10:11:24;11.93;;;3.70;;
64615;SDS011;51027;42.162;24.754;2022-09-17T10:13:51;15.27;;;4.82;;
64615;SDS011;51027;42.162;24.754;2022-09-17T10:16:18;14.30;;;4.25;;
64615;SDS011;51027;42.162;24.754;2022-09-17T10:18:44;20.30;;;7.43;;
64615;SDS011;51027;42.162;24.754;2022-09-17T10:21:20;17.90;;;5.47;;
64615;SDS011;51027;42.162;24.754;2022-09-17T10:23:54;16.10;;;3.97;;
64615;SDS011;51027;42.162;24.754;2022-09-17T10:26:26;19.38;;;5.53;;
64615;SDS011;51027;42.162;24.754;2022-09-17T10:28:56;15.68;;;4.22;;
64615;SDS011;51027;42.162;24.754;2022-09-17T10:31:23;23.73;;;6.35;;
64615;SDS011;51027;42.162;24.754;2022-09-17T10:33:55;20.05;;;5.82;;
64615;SDS011;51027;42.162;24.754;2022-09-17T10:36:56;31.13;;;8.68;;
64615;SDS011;51027;42.162;24.754;2022-09-17T10:44:58;21.48;;;6.25;;
64615;SDS011;51027;42.162;24.754;2022-09-17T10:47:30;20.25;;;6.55;;
64615;SDS011;51027;42.162;24.754;2022-09-17T10:50:23;19.42;;;7.55;;
64615;SDS011;51027;42.162;24.754;2022-09-17T10:52:56;19.67;;;6.28;;
64615;SDS011;51027;42.162;24.754;2022-09-17T10:55:29;19.15;;;6.78;;
64615;SDS011;51027;42.162;24.754;2022-09-17T10:58:10;21.55;;;6.88;;
64615;SDS011;51027;42.162;24.754;2022-09-17T11:04:04;20.48;;;8.13;;
64615;SDS011;51027;42.162;24.754;2022-09-17T11:14:54;19.33;;;6.70;;
64615;SDS011;51027;42.162;24.754;2022-09-17T11:20:31;13.50;;;4.53;;
64615;SDS011;51027;42.162;24.754;2022-09-17T11:25:30;11.20;;;3.97;;
64615;SDS011;51027;42.162;24.754;2022-09-17T11:36:09;13.65;;;3.35;;
64615;SDS011;51027;42.162;24.754;2022-09-17T11:38:44;10.93;;;3.50;;
64615;SDS011;51027;42.162;24.754;2022-09-17T11:41:36;8.10;;;2.83;;
64615;SDS011;51027;42.162;24.754;2022-09-17T11:44:12;8.95;;;3.22;;
64615;SDS011;51027;42.162;24.754;2022-09-17T11:46:52;7.68;;;2.63;;
64615;SDS011;51027;42.162;24.754;2022-09-17T11:52:03;12.38;;;3.08;;
64615;SDS011;51027;42.162;24.754;2022-09-17T11:57:14;9.63;;;2.80;;
64615;SDS011;51027;42.162;24.754;2022-09-17T11:59:56;6.68;;;2.30;;
64615;SDS011;51027;42.162;24.754;2022-09-17T12:05:32;5.20;;;2.03;;
64615;SDS011;51027;42.162;24.754;2022-09-17T12:08:16;5.70;;;2.17;;
64615;SDS011;51027;42.162;24.754;2022-09-17T12:16:24;10.82;;;2.70;;
64615;SDS011;51027;42.162;24.754;2022-09-17T12:18:59;7.40;;;2.70;;
64615;SDS011;51027;42.162;24.754;2022-09-17T12:22:12;4.50;;;2.20;;
64615;SDS011;51027;42.162;24.754;2022-09-17T12:24:24;7.18;;;2.50;;
64615;SDS011;51027;42.162;24.754;2022-09-17T12:29:35;8.15;;;2.40;;
64615;SDS011;51027;42.162;24.754;2022-09-17T12:32:18;11.32;;;2.70;;
64615;SDS011;51027;42.162;24.754;2022-09-17T12:35:06;9.40;;;3.25;;
64615;SDS011;51027;42.162;24.754;2022-09-17T12:43:39;9.25;;;2.55;;
64615;SDS011;51027;42.162;24.754;2022-09-17T12:46:37;6.65;;;2.05;;
64615;SDS011;51027;42.162;24.754;2022-09-17T12:57:18;7.15;;;2.30;;
64615;SDS011;51027;42.162;24.754;2022-09-17T13:00:09;6.85;;;2.17;;
64615;SDS011;51027;42.162;24.754;2022-09-17T13:08:16;5.40;;;2.10;;
64615;SDS011;51027;42.162;24.754;2022-09-17T13:17:10;6.65;;;2.55;;
64615;SDS011;51027;42.162;24.754;2022-09-17T13:23:04;12.43;;;2.70;;
64615;SDS011;51027;42.162;24.754;2022-09-17T13:25:30;6.35;;;2.50;;
64615;SDS011;51027;42.162;24.754;2022-09-17T13:28:08;9.30;;;2.70;;
64615;SDS011;51027;42.162;24.754;2022-09-17T13:42:16;7.95;;;2.63;;
64615;SDS011;51027;42.162;24.754;2022-09-17T13:44:44;7.65;;;2.67;;
64615;SDS011;51027;42.162;24.754;2022-09-17T13:47:13;6.68;;;2.15;;
64615;SDS011;51027;42.162;24.754;2022-09-17T13:49:51;8.70;;;2.72;;
64615;SDS011;51027;42.162;24.754;2022-09-17T13:54:54;8.90;;;3.10;;
64615;SDS011;51027;42.162;24.754;2022-09-17T13:57:20;10.25;;;2.65;;
64615;SDS011;51027;42.162;24.754;2022-09-17T13:59:56;9.02;;;2.70;;
64615;SDS011;51027;42.162;24.754;2022-09-17T14:04:55;10.15;;;3.78;;
64615;SDS011;51027;42.162;24.754;2022-09-17T14:07:45;13.60;;;4.78;;
64615;SDS011;51027;42.162;24.754;2022-09-17T14:10:33;8.23;;;2.80;;
64615;SDS011;51027;42.162;24.754;2022-09-17T14:13:19;8.50;;;2.63;;
64615;SDS011;51027;42.162;24.754;2022-09-17T14:15:54;10.73;;;2.38;;
64615;SDS011;51027;42.162;24.754;2022-09-17T14:20:54;7.53;;;2.78;;
64615;SDS011;51027;42.162;24.754;2022-09-17T14:23:30;14.30;;;4.45;;
64615;SDS011;51027;42.162;24.754;2022-09-17T14:25:58;8.70;;;3.20;;
64615;SDS011;51027;42.162;24.754;2022-09-17T14:31:00;8.27;;;2.75;;
64615;SDS011;51027;42.162;24.754;2022-09-17T14:33:27;7.97;;;2.78;;
64615;SDS011;51027;42.162;24.754;2022-09-17T14:36:14;15.98;;;4.05;;
64615;SDS011;51027;42.162;24.754;2022-09-17T14:38:48;9.70;;;2.83;;
64615;SDS011;51027;42.162;24.754;2022-09-17T14:41:20;11.55;;;3.53;;
64615;SDS011;51027;42.162;24.754;2022-09-17T14:44:04;12.30;;;3.78;;
64615;SDS011;51027;42.162;24.754;2022-09-17T14:46:35;12.93;;;3.28;;
64615;SDS011;51027;42.162;24.754;2022-09-17T14:49:14;10.82;;;3.55;;
64615;SDS011;51027;42.162;24.754;2022-09-17T14:51:41;14.32;;;4.75;;
64615;SDS011;51027;42.162;24.754;2022-09-17T14:54:08;12.32;;;4.05;;
64615;SDS011;51027;42.162;24.754;2022-09-17T14:56:44;20.67;;;9.25;;
64615;SDS011;51027;42.162;24.754;2022-09-17T15:01:51;24.58;;;14.50;;
64615;SDS011;51027;42.162;24.754;2022-09-17T15:04:20;26.90;;;14.20;;
64615;SDS011;51027;42.162;24.754;2022-09-17T15:06:48;25.98;;;14.30;;
64615;SDS011;51027;42.162;24.754;2022-09-17T15:09:24;26.58;;;14.15;;
64615;SDS011;51027;42.162;24.754;2022-09-17T15:11:53;26.75;;;13.77;;
64615;SDS011;51027;42.162;24.754;2022-09-17T15:14:24;26.90;;;14.90;;
64615;SDS011;51027;42.162;24.754;2022-09-17T15:16:53;26.65;;;13.88;;
64615;SDS011;51027;42.162;24.754;2022-09-17T15:19:25;26.33;;;13.50;;
64615;SDS011;51027;42.162;24.754;2022-09-17T15:21:57;24.00;;;12.52;;
64615;SDS011;51027;42.162;24.754;2022-09-17T15:29:59;27.27;;;12.27;;
64615;SDS011;51027;42.162;24.754;2022-09-17T15:32:27;22.05;;;10.43;;
64615;SDS011;51027;42.162;24.754;2022-09-17T15:40:13;14.60;;;5.40;;
64615;SDS011;51027;42.162;24.754;2022-09-17T15:42:46;14.48;;;4.90;;
64615;SDS011;51027;42.162;24.754;2022-09-17T15:52:43;11.20;;;3.85;;
64615;SDS011;51027;42.162;24.754;2022-09-17T15:55:28;12.15;;;3.50;;
64615;SDS011;51027;42.162;24.754;2022-09-17T15:58:00;14.63;;;4.05;;
64615;SDS011;51027;42.162;24.754;2022-09-17T16:00:27;12.18;;;3.30;;
64615;SDS011;51027;42.162;24.754;2022-09-17T16:02:53;13.77;;;3.67;;
64615;SDS011;51027;42.162;24.754;2022-09-17T16:07:51;13.65;;;3.92;;
64615;SDS011;51027;42.162;24.754;2022-09-17T16:10:17;8.60;;;2.90;;
64615;SDS011;51027;42.162;24.754;2022-09-17T16:12:43;14.52;;;3.85;;
64615;SDS011;51027;42.162;24.754;2022-09-17T16:15:08;15.93;;;4.65;;
64615;SDS011;51027;42.162;24.754;2022-09-17T16:17:44;14.13;;;4.68;;
64615;SDS011;51027;42.162;24.754;2022-09-17T16:20:18;16.15;;;4.68;;
64615;SDS011;51027;42.162;24.754;2022-09-17T16:22:47;15.75;;;3.70;;
64615;SDS011;51027;42.162;24.754;2022-09-17T16:25:13;12.73;;;3.67;;
64615;SDS011;51027;42.162;24.754;2022-09-17T16:30:15;14.93;;;4.03;;
64615;SDS011;51027;42.162;24.754;2022-09-17T16:32:43;10.95;;;3.30;;
64615;SDS011;51027;42.162;24.754;2022-09-17T16:35:12;13.50;;;4.22;;
64615;SDS011;51027;42.162;24.754;2022-09-17T16:37:39;12.85;;;3.92;;
64615;SDS011;51027;42.162;24.754;2022-09-17T16:40:05;16.58;;;4.20;;
64615;SDS011;51027;42.162;24.754;2022-09-17T16:42:33;15.15;;;3.85;;
64615;SDS011;51027;42.162;24.754;2022-09-17T16:44:58;26.85;;;14.00;;
64615;SDS011;51027;42.162;24.754;2022-09-17T16:47:25;19.50;;;5.15;;
64615;SDS011;51027;42.162;24.754;2022-09-17T16:49:50;13.18;;;4.25;;
64615;SDS011;51027;42.162;24.754;2022-09-17T16:52:15;16.05;;;4.22;;
64615;SDS011;51027;42.162;24.754;2022-09-17T16:54:41;18.80;;;4.80;;
64615;SDS011;51027;42.162;24.754;2022-09-17T16:57:06;15.60;;;6.03;;
64615;SDS011;51027;42.162;24.754;2022-09-17T16:59:32;15.75;;;5.30;;
64615;SDS011;51027;42.162;24.754;2022-09-17T17:01:57;14.68;;;4.82;;
64615;SDS011;51027;42.162;24.754;2022-09-17T17:04:23;16.05;;;5.45;;
64615;SDS011;51027;42.162;24.754;2022-09-17T17:06:48;15.77;;;5.45;;
64615;SDS011;51027;42.162;24.754;2022-09-17T17:09:14;14.85;;;4.60;;
64615;SDS011;51027;42.162;24.754;2022-09-17T17:11:39;14.40;;;4.60;;
64615;SDS011;51027;42.162;24.754;2022-09-17T17:14:05;19.65;;;4.85;;
64615;SDS011;51027;42.162;24.754;2022-09-17T17:16:30;13.23;;;4.30;;
64615;SDS011;51027;42.162;24.754;2022-09-17T17:18:56;12.27;;;4.50;;
64615;SDS011;51027;42.162;24.754;2022-09-17T17:21:21;16.13;;;4.90;;
64615;SDS011;51027;42.162;24.754;2022-09-17T17:23:47;18.83;;;5.72;;
64615;SDS011;51027;42.162;24.754;2022-09-17T17:26:15;19.50;;;5.32;;
64615;SDS011;51027;42.162;24.754;2022-09-17T17:28:41;14.27;;;4.88;;
64615;SDS011;51027;42.162;24.754;2022-09-17T17:31:07;13.98;;;4.78;;
64615;SDS011;51027;42.162;24.754;2022-09-17T17:33:33;13.65;;;3.90;;
64615;SDS011;51027;42.162;24.754;2022-09-17T17:35:59;14.93;;;4.07;;
64615;SDS011;51027;42.162;24.754;2022-09-17T17:38:26;15.82;;;4.28;;
64615;SDS011;51027;42.162;24.754;2022-09-17T17:41:02;13.43;;;3.63;;
64615;SDS011;51027;42.162;24.754;2022-09-17T17:43:32;12.90;;;3.70;;
64615;SDS011;51027;42.162;24.754;2022-09-17T17:45:57;11.98;;;3.42;;
64615;SDS011;51027;42.162;24.754;2022-09-17T17:48:23;10.23;;;3.42;;
64615;SDS011;51027;42.162;24.754;2022-09-17T17:50:48;12.00;;;3.25;;
64615;SDS011;51027;42.162;24.754;2022-09-17T17:53:13;13.40;;;3.40;;
64615;SDS011;51027;42.162;24.754;2022-09-17T17:55:39;15.32;;;3.20;;
64615;SDS011;51027;42.162;24.754;2022-09-17T17:58:04;9.23;;;3.20;;
64615;SDS011;51027;42.162;24.754;2022-09-17T18:00:30;11.48;;;3.03;;
64615;SDS011;51027;42.162;24.754;2022-09-17T18:02:55;14.65;;;4.38;;
64615;SDS011;51027;42.162;24.754;2022-09-17T18:05:30;11.37;;;3.43;;
64615;SDS011;51027;42.162;24.754;2022-09-17T18:07:56;11.95;;;3.95;;
64615;SDS011;51027;42.162;24.754;2022-09-17T18:10:21;11.57;;;3.55;;
64615;SDS011;51027;42.162;24.754;2022-09-17T18:12:48;11.35;;;3.97;;
64615;SDS011;51027;42.162;24.754;2022-09-17T18:15:14;13.88;;;4.05;;
64615;SDS011;51027;42.162;24.754;2022-09-17T18:17:41;11.70;;;3.42;;
64615;SDS011;51027;42.162;24.754;2022-09-17T18:20:06;11.80;;;3.97;;
64615;SDS011;51027;42.162;24.754;2022-09-17T18:22:32;13.82;;;4.68;;
64615;SDS011;51027;42.162;24.754;2022-09-17T18:25:18;13.18;;;4.30;;
64615;SDS011;51027;42.162;24.754;2022-09-17T18:27:44;11.57;;;3.60;;